createdAt,value
2022-08-23T00:01:23.874Z,27.26
2022-08-23T00:04:19.653Z,27.24
2022-08-23T00:07:12.959Z,27.22
2022-08-23T00:10:03.709Z,27.21
2022-08-23T00:12:54.795Z,27.20
2022-08-23T00:15:46.089Z,27.18
2022-08-23T00:18:36.214Z,27.17
2022-08-23T00:21:27.318Z,27.16
2022-08-23T00:24:19.164Z,27.16
2022-08-23T00:27:11.349Z,27.15
2022-08-23T00:30:02.045Z,27.13
2022-08-23T00:32:53.118Z,27.13
2022-08-23T00:35:48.557Z,27.12
2022-08-23T00:38:39.340Z,27.11
2022-08-23T00:41:32.658Z,27.10
2022-08-23T00:44:44.701Z,27.08
2022-08-23T00:47:41.512Z,27.06
2022-08-23T00:50:38.413Z,27.05
2022-08-23T00:53:32.795Z,27.04
2022-08-23T00:56:28.782Z,27.04
2022-08-23T00:59:20.381Z,27.02
2022-08-23T01:02:12.690Z,27.00
2022-08-23T01:05:03.669Z,26.99
2022-08-23T01:08:00.794Z,26.97
2022-08-23T01:10:55.810Z,26.95
2022-08-23T01:13:51.505Z,26.93
2022-08-23T01:16:48.028Z,26.91
2022-08-23T01:19:42.190Z,26.89
2022-08-23T01:22:38.537Z,26.89
2022-08-23T01:25:32.530Z,26.88
2022-08-23T01:28:23.057Z,26.87
2022-08-23T01:31:16.930Z,26.86
2022-08-23T01:34:09.426Z,26.86
2022-08-23T01:37:01.719Z,26.86
2022-08-23T01:39:52.907Z,26.84
2022-08-23T01:42:43.767Z,26.81
2022-08-23T01:45:39.852Z,26.80
2022-08-23T01:48:31.713Z,26.79
2022-08-23T01:51:26.419Z,26.78
2022-08-23T01:54:17.000Z,26.77
2022-08-23T01:57:11.305Z,26.75
2022-08-23T02:00:02.734Z,26.73
2022-08-23T02:03:07.979Z,26.70
2022-08-23T02:05:58.776Z,26.69
2022-08-23T02:09:04.536Z,26.67
2022-08-23T02:12:01.483Z,26.65
2022-08-23T02:14:53.184Z,26.64
2022-08-23T02:17:47.829Z,26.62
2022-08-23T02:20:40.349Z,26.63
2022-08-23T02:23:31.238Z,26.62
2022-08-23T02:26:30.913Z,26.63
2022-08-23T02:29:24.357Z,26.64
2022-08-23T02:32:21.019Z,26.63
2022-08-23T02:35:12.024Z,26.60
2022-08-23T02:38:04.539Z,26.58
2022-08-23T02:41:00.839Z,26.60
2022-08-23T02:43:55.462Z,26.57
2022-08-23T02:46:46.980Z,26.57
2022-08-23T02:49:38.500Z,26.56
2022-08-23T02:52:29.297Z,26.56
2022-08-23T02:55:20.301Z,26.56
2022-08-23T02:58:11.354Z,26.56
2022-08-23T03:01:03.130Z,26.56
2022-08-23T03:03:54.508Z,26.57
2022-08-23T03:06:45.499Z,26.57
2022-08-23T03:09:36.708Z,26.56
2022-08-23T03:12:28.375Z,26.54
2022-08-23T03:15:21.818Z,26.51
2022-08-23T03:18:13.424Z,26.47
2022-08-23T03:21:04.323Z,26.45
2022-08-23T03:23:55.391Z,26.43
2022-08-23T03:26:47.722Z,26.43
2022-08-23T03:29:39.669Z,26.43
2022-08-23T03:32:32.593Z,26.44
2022-08-23T03:35:26.895Z,26.44
2022-08-23T03:38:19.823Z,26.44
2022-08-23T03:41:11.441Z,26.42
2022-08-23T03:44:04.910Z,26.40
2022-08-23T03:46:56.972Z,26.38
2022-08-23T03:49:49.270Z,26.37
2022-08-23T03:52:40.108Z,26.37
2022-08-23T03:55:30.703Z,26.36
2022-08-23T03:58:26.147Z,26.35
2022-08-23T04:01:17.395Z,26.34
2022-08-23T04:04:07.587Z,26.35
2022-08-23T04:07:02.822Z,26.33
2022-08-23T04:09:55.337Z,26.32
2022-08-23T04:12:50.180Z,26.30
2022-08-23T04:15:44.358Z,26.28
2022-08-23T04:18:36.731Z,26.29
2022-08-23T04:21:28.230Z,26.28
2022-08-23T04:24:19.579Z,26.28
2022-08-23T04:27:10.695Z,26.26
2022-08-23T04:30:01.187Z,26.24
2022-08-23T04:32:52.188Z,26.22
2022-08-23T04:35:44.835Z,26.21
2022-08-23T04:38:36.452Z,26.23
2022-08-23T04:41:48.996Z,26.22
2022-08-23T04:44:41.727Z,26.21
2022-08-23T04:47:32.115Z,26.20
2022-08-23T04:50:24.451Z,26.19
2022-08-23T04:53:36.741Z,26.18
2022-08-23T04:56:50.924Z,26.17
2022-08-23T04:59:44.517Z,26.17
2022-08-23T05:02:35.168Z,26.16
2022-08-23T05:05:27.329Z,26.16
2022-08-23T05:08:18.588Z,26.17
2022-08-23T05:11:11.086Z,26.44
2022-08-23T05:14:02.992Z,26.76
2022-08-23T05:16:54.098Z,26.93
2022-08-23T05:19:47.069Z,27.00
2022-08-23T05:22:39.821Z,27.10
2022-08-23T05:25:58.802Z,27.18
2022-08-23T05:29:08.692Z,27.26
2022-08-23T05:32:03.724Z,27.29
2022-08-23T05:34:54.510Z,27.32
2022-08-23T05:37:44.799Z,27.40
2022-08-23T05:40:35.246Z,27.43
2022-08-23T05:43:32.528Z,27.47
2022-08-23T05:46:28.492Z,27.48
2022-08-23T05:49:32.626Z,27.51
2022-08-23T05:52:23.206Z,27.53
2022-08-23T05:55:16.519Z,27.60
2022-08-23T05:58:12.315Z,27.61
2022-08-23T06:01:02.768Z,27.60
2022-08-23T06:03:54.605Z,27.63
2022-08-23T06:06:45.732Z,27.65
2022-08-23T06:09:35.874Z,27.67
2022-08-23T06:12:27.207Z,27.67
2022-08-23T06:15:17.822Z,27.71
2022-08-23T06:18:08.001Z,27.74
2022-08-23T06:21:08.215Z,27.76
2022-08-23T06:24:09.667Z,27.76
2022-08-23T06:27:07.544Z,27.77
2022-08-23T06:29:58.165Z,27.80
2022-08-23T06:32:55.453Z,27.80
2022-08-23T06:36:06.604Z,27.82
2022-08-23T06:39:21.974Z,27.87
2022-08-23T06:42:39.149Z,27.87
2022-08-23T06:45:35.248Z,27.89
2022-08-23T06:48:26.902Z,27.91
2022-08-23T06:51:24.296Z,27.87
2022-08-23T06:54:36.656Z,27.85
2022-08-23T06:57:56.678Z,27.88
2022-08-23T07:01:44.634Z,27.94
2022-08-23T07:04:54.212Z,27.97
2022-08-23T07:08:01.604Z,27.89
2022-08-23T07:10:54.676Z,27.82
2022-08-23T07:13:45.532Z,27.78
2022-08-23T07:16:38.398Z,27.73
2022-08-23T07:19:32.554Z,27.71
2022-08-23T07:22:24.953Z,27.74
2022-08-23T07:25:15.140Z,27.74
2022-08-23T07:28:12.469Z,27.76
2022-08-23T07:31:14.749Z,27.84
2022-08-23T07:34:09.455Z,27.90
2022-08-23T07:37:04.349Z,27.92
2022-08-23T07:40:02.443Z,27.95
2022-08-23T07:42:57.883Z,28.00
2022-08-23T07:45:49.663Z,28.06
2022-08-23T07:48:53.878Z,28.08
2022-08-23T07:51:53.245Z,28.12
2022-08-23T07:54:48.566Z,28.18
2022-08-23T07:57:50.853Z,28.25
2022-08-23T08:00:53.898Z,28.31
2022-08-23T08:04:05.707Z,28.33
2022-08-23T08:07:18.318Z,28.27
2022-08-23T08:10:11.836Z,28.29
2022-08-23T08:13:02.204Z,28.41
2022-08-23T08:15:52.598Z,28.56
2022-08-23T08:18:44.073Z,28.72
2022-08-23T08:21:52.785Z,28.79
2022-08-23T08:24:56.494Z,28.74
2022-08-23T08:27:47.801Z,28.64
2022-08-23T08:30:37.798Z,28.59
2022-08-23T08:33:30.682Z,28.56
2022-08-23T08:36:37.124Z,28.48
2022-08-23T08:39:31.750Z,28.41
2022-08-23T08:42:46.756Z,28.35
2022-08-23T08:45:58.590Z,28.27
2022-08-23T08:49:01.376Z,28.24
2022-08-23T08:51:56.500Z,28.23
2022-08-23T08:54:50.138Z,28.20
2022-08-23T08:57:45.957Z,28.19
2022-08-23T09:00:40.273Z,28.18
2022-08-23T09:03:35.546Z,28.25
2022-08-23T09:06:31.827Z,28.31
2022-08-23T09:09:35.364Z,28.33
2022-08-23T09:12:34.043Z,28.34
2022-08-23T09:15:32.182Z,28.37
2022-08-23T09:18:24.427Z,28.51
2022-08-23T09:21:15.951Z,28.68
2022-08-23T09:24:06.595Z,28.79
2022-08-23T09:27:07.747Z,28.88
2022-08-23T09:30:01.661Z,28.91
2022-08-23T09:32:52.346Z,29.03
2022-08-23T09:35:43.710Z,29.16
2022-08-23T09:38:38.687Z,29.30
2022-08-23T09:41:36.686Z,29.47
2022-08-23T09:44:39.390Z,29.61
2022-08-23T09:47:43.259Z,29.71
2022-08-23T09:50:42.364Z,29.82
2022-08-23T09:53:35.806Z,29.97
2022-08-23T09:56:37.061Z,30.08
2022-08-23T09:59:39.572Z,30.16
2022-08-23T10:02:36.409Z,30.21
2022-08-23T10:05:42.263Z,30.15
2022-08-23T10:08:43.506Z,30.07
2022-08-23T10:11:37.437Z,30.01
2022-08-23T10:14:30.531Z,29.98
2022-08-23T10:17:34.334Z,29.93
2022-08-23T10:20:39.319Z,29.82
2022-08-23T10:23:39.120Z,29.69
2022-08-23T10:26:35.282Z,29.62
2022-08-23T10:29:41.593Z,29.65
2022-08-23T10:32:47.909Z,29.67
2022-08-23T10:35:46.591Z,29.68
2022-08-23T10:38:48.691Z,29.66
2022-08-23T10:41:52.346Z,29.64
2022-08-23T10:44:51.154Z,29.66
2022-08-23T10:47:58.964Z,29.64
2022-08-23T10:50:55.679Z,29.60
2022-08-23T10:53:50.966Z,29.57
2022-08-23T10:56:51.234Z,29.56
2022-08-23T10:59:43.712Z,29.58
2022-08-23T11:02:45.464Z,29.59
2022-08-23T11:06:41.296Z,29.60
2022-08-23T11:09:54.726Z,29.63
2022-08-23T11:12:59.471Z,29.60
2022-08-23T11:16:00.922Z,29.57
2022-08-23T11:18:52.947Z,29.53
2022-08-23T11:21:51.214Z,29.55
2022-08-23T11:24:58.215Z,29.57
2022-08-23T11:27:49.439Z,29.63
2022-08-23T11:30:49.903Z,29.66
2022-08-23T11:33:50.987Z,29.72
2022-08-23T11:37:04.571Z,29.79
2022-08-23T11:40:18.002Z,29.81
2022-08-23T11:43:13.797Z,29.74
2022-08-23T11:46:33.282Z,29.70
2022-08-23T11:50:01.473Z,29.73
2022-08-23T11:53:05.226Z,29.80
2022-08-23T11:56:11.613Z,29.77
2022-08-23T11:59:15.522Z,29.72
2022-08-23T12:02:47.550Z,29.73
2022-08-23T12:06:07.407Z,29.69
2022-08-23T12:09:02.228Z,29.59
2022-08-23T12:12:12.298Z,29.46
2022-08-23T12:15:13.103Z,29.37
2022-08-23T12:18:23.853Z,29.36
2022-08-23T12:21:22.499Z,29.32
2022-08-23T12:24:21.048Z,29.35
2022-08-23T12:27:24.026Z,29.36
2022-08-23T12:30:22.495Z,29.36
2022-08-23T12:33:24.747Z,29.32
2022-08-23T12:36:24.272Z,29.29
2022-08-23T12:39:25.878Z,29.27
2022-08-23T12:42:19.984Z,29.28
2022-08-23T12:45:16.062Z,29.32
2022-08-23T12:48:08.340Z,29.33
2022-08-23T12:51:01.255Z,29.36
2022-08-23T12:53:54.203Z,29.43
2022-08-23T12:56:50.819Z,29.52
2022-08-23T12:59:49.217Z,29.61
2022-08-23T13:02:40.224Z,29.66
2022-08-23T13:05:45.918Z,29.69
2022-08-23T13:08:39.975Z,29.76
2022-08-23T13:11:34.134Z,29.78
2022-08-23T13:14:37.626Z,29.88
2022-08-23T13:17:39.727Z,29.99
2022-08-23T13:20:29.648Z,30.04
2022-08-23T13:23:31.050Z,30.07
2022-08-23T13:26:35.441Z,30.12
2022-08-23T13:29:26.511Z,30.24
2022-08-23T13:32:30.991Z,30.33
2022-08-23T13:35:41.375Z,30.36
2022-08-23T13:38:34.121Z,30.36
2022-08-23T13:41:38.410Z,30.37
2022-08-23T13:44:31.643Z,30.39
2022-08-23T13:47:27.764Z,30.43
2022-08-23T13:50:24.851Z,30.48
2022-08-23T13:53:15.685Z,30.51
2022-08-23T13:56:06.222Z,30.51
2022-08-23T13:59:00.388Z,30.53
2022-08-23T14:01:50.850Z,30.53
2022-08-23T14:04:42.337Z,30.52
2022-08-23T14:07:32.795Z,30.49
2022-08-23T14:10:23.806Z,30.40
2022-08-23T14:13:18.161Z,30.34
2022-08-23T14:22:32.714Z,30.21
2022-08-23T14:25:23.700Z,30.18
2022-08-23T14:28:14.050Z,30.18
2022-08-23T14:31:04.873Z,30.15
2022-08-23T14:33:57.754Z,30.15
2022-08-23T14:40:05.308Z,30.20
2022-08-23T14:42:56.573Z,30.21
2022-08-23T14:45:47.128Z,30.19
2022-08-23T14:48:39.847Z,30.16
2022-08-23T14:51:34.137Z,30.12
2022-08-23T14:54:28.514Z,30.05
2022-08-23T14:57:21.902Z,29.99
2022-08-23T15:00:15.474Z,29.94
2022-08-23T15:03:10.223Z,29.96
2022-08-23T15:06:03.657Z,29.97
2022-08-23T15:08:53.698Z,29.98
2022-08-23T15:14:53.567Z,30.00
2022-08-23T15:17:48.950Z,29.99
2022-08-23T15:20:40.066Z,30.00
2022-08-23T15:23:32.595Z,30.00
2022-08-23T15:26:27.218Z,30.03
2022-08-23T15:29:19.063Z,30.07
2022-08-23T15:32:10.567Z,30.11
2022-08-23T15:35:02.907Z,30.17
2022-08-23T15:37:54.552Z,30.22
2022-08-23T15:40:45.786Z,30.25
2022-08-23T15:43:39.212Z,30.29
2022-08-23T15:46:29.656Z,30.31
2022-08-23T15:49:21.785Z,30.32
2022-08-23T15:52:12.405Z,30.34
2022-08-23T15:55:03.948Z,30.37
2022-08-23T15:57:58.138Z,30.34
2022-08-23T16:00:49.156Z,30.31
2022-08-23T16:03:42.537Z,30.28
2022-08-23T16:06:38.187Z,30.28
2022-08-23T16:09:29.800Z,30.26
2022-08-23T16:12:20.638Z,30.25
2022-08-23T16:15:12.037Z,30.26
2022-08-23T16:18:02.817Z,30.27
2022-08-23T16:20:54.134Z,30.28
2022-08-23T16:23:45.308Z,30.30
2022-08-23T16:26:39.014Z,30.31
2022-08-23T16:29:34.878Z,30.31
2022-08-23T16:32:24.817Z,30.26
2022-08-23T16:35:14.503Z,30.23
2022-08-23T16:38:05.304Z,30.19
2022-08-23T16:40:55.235Z,30.16
2022-08-23T16:43:46.083Z,30.15
2022-08-23T16:46:37.489Z,30.16
2022-08-23T16:49:28.514Z,30.15
2022-08-23T16:52:19.179Z,30.13
2022-08-23T16:55:15.459Z,30.12
2022-08-23T16:58:05.621Z,30.13
2022-08-23T17:00:57.243Z,30.16
2022-08-23T17:03:49.366Z,30.17
2022-08-23T17:06:40.107Z,30.17
2022-08-23T17:09:31.365Z,30.18
2022-08-23T17:12:22.420Z,30.15
2022-08-23T17:15:15.682Z,30.13
2022-08-23T17:18:12.021Z,30.09
2022-08-23T17:21:02.908Z,30.05
2022-08-23T17:23:53.121Z,30.00
2022-08-23T17:26:49.787Z,29.97
2022-08-23T17:29:41.584Z,29.97
2022-08-23T17:32:31.407Z,29.96
2022-08-23T17:35:23.886Z,29.95
2022-08-23T17:38:17.245Z,29.95
2022-08-23T17:41:07.378Z,29.97
2022-08-23T17:43:58.257Z,30.00
2022-08-23T17:46:51.476Z,30.02
2022-08-23T17:49:41.925Z,30.04
2022-08-23T17:52:32.498Z,30.06
2022-08-23T17:55:22.890Z,30.07
2022-08-23T17:58:14.284Z,30.08
2022-08-23T18:01:04.872Z,30.09
2022-08-23T18:03:55.319Z,30.12
2022-08-23T18:06:45.244Z,30.16
2022-08-23T18:09:40.039Z,30.18
2022-08-23T18:12:39.015Z,30.18
2022-08-23T18:15:30.149Z,30.17
2022-08-23T18:18:21.504Z,30.15
2022-08-23T18:21:13.922Z,30.14
2022-08-23T18:24:04.711Z,30.13
2022-08-23T18:27:12.341Z,30.10
2022-08-23T18:30:03.553Z,30.08
2022-08-23T18:32:54.537Z,30.06
2022-08-23T18:35:45.592Z,30.03
2022-08-23T18:38:36.321Z,30.00
2022-08-23T18:41:26.982Z,29.97
2022-08-23T18:44:17.474Z,29.95
2022-08-23T18:47:08.066Z,29.94
2022-08-23T18:49:57.649Z,29.93
2022-08-23T18:52:47.338Z,29.91
2022-08-23T18:55:38.320Z,29.88
2022-08-23T18:58:31.133Z,29.86
2022-08-23T19:01:27.618Z,29.85
2022-08-23T19:04:17.715Z,29.85
2022-08-23T19:07:08.342Z,29.84
2022-08-23T19:09:58.765Z,29.84
2022-08-23T19:12:51.886Z,29.82
2022-08-23T19:15:47.398Z,29.80
2022-08-23T19:18:37.629Z,29.80
2022-08-23T19:21:28.624Z,29.78
2022-08-23T19:24:24.056Z,29.77
2022-08-23T19:27:15.119Z,29.76
2022-08-23T19:30:06.572Z,29.74
2022-08-23T19:32:57.563Z,29.72
2022-08-23T19:35:49.306Z,29.71
2022-08-23T19:38:42.397Z,29.70
2022-08-23T19:41:34.076Z,29.71
2022-08-23T19:44:24.944Z,29.67
2022-08-23T19:47:20.207Z,29.64
2022-08-23T19:50:12.466Z,29.59
2022-08-23T19:53:03.826Z,29.54
2022-08-23T19:55:53.999Z,29.49
2022-08-23T19:58:45.494Z,29.45
2022-08-23T20:01:36.138Z,29.42
2022-08-23T20:04:28.322Z,29.39
2022-08-23T20:07:18.147Z,29.35
2022-08-23T20:10:10.132Z,29.33
2022-08-23T20:13:01.179Z,29.32
2022-08-23T20:15:56.100Z,29.32
2022-08-23T20:18:51.640Z,29.33
2022-08-23T20:21:42.889Z,29.34
2022-08-23T20:24:50.833Z,29.35
2022-08-23T20:27:45.103Z,29.35
2022-08-23T20:30:35.782Z,29.34
2022-08-23T20:33:25.747Z,29.31
2022-08-23T20:36:16.856Z,29.29
2022-08-23T20:39:08.131Z,29.27
2022-08-23T20:41:58.002Z,29.27
2022-08-23T20:44:48.668Z,29.27
2022-08-23T20:47:40.890Z,29.27
2022-08-23T20:50:31.044Z,29.27
2022-08-23T20:53:23.715Z,29.24
2022-08-23T20:56:13.695Z,29.21
2022-08-23T20:59:04.013Z,29.16
2022-08-23T21:01:53.777Z,29.13
2022-08-23T21:04:43.932Z,29.12
2022-08-23T21:07:34.493Z,29.10
2022-08-23T21:10:27.021Z,29.10
2022-08-23T21:13:20.279Z,29.08
2022-08-23T21:16:11.726Z,29.08
2022-08-23T21:19:01.603Z,29.05
2022-08-23T21:21:52.604Z,29.02
2022-08-23T21:24:43.481Z,28.97
2022-08-23T21:27:33.486Z,28.93
2022-08-23T21:30:23.599Z,28.88
2022-08-23T21:33:14.456Z,28.84
2022-08-23T21:36:05.218Z,28.81
2022-08-23T21:38:56.240Z,28.78
2022-08-23T21:41:49.479Z,28.74
2022-08-23T21:44:39.813Z,28.69
2022-08-23T21:47:30.692Z,28.65
2022-08-23T21:50:21.441Z,28.63
2022-08-23T21:53:17.720Z,28.60
2022-08-23T21:56:07.864Z,28.58
2022-08-23T21:59:02.271Z,28.55
2022-08-23T22:01:53.349Z,28.53
2022-08-23T22:04:50.469Z,28.52
2022-08-23T22:07:41.577Z,28.52
2022-08-23T22:10:31.779Z,28.52
2022-08-23T22:13:22.474Z,28.50
2022-08-23T22:16:13.695Z,28.49
2022-08-23T22:19:04.868Z,28.47
2022-08-23T22:21:54.968Z,28.44
2022-08-23T22:24:44.954Z,28.41
2022-08-23T22:27:36.446Z,28.38
2022-08-23T22:30:27.640Z,28.36
2022-08-23T22:33:20.537Z,28.34
2022-08-23T22:36:18.290Z,28.31
2022-08-23T22:39:10.545Z,28.30
2022-08-23T22:42:03.051Z,28.30
2022-08-23T22:44:56.964Z,28.29
2022-08-23T22:47:49.227Z,28.25
2022-08-23T22:50:40.431Z,28.22
2022-08-23T22:53:30.626Z,28.19
2022-08-23T22:56:23.038Z,28.18
2022-08-23T22:59:14.446Z,28.16
2022-08-23T23:02:07.109Z,28.16
2022-08-23T23:04:59.144Z,28.15
2022-08-23T23:08:06.735Z,28.15
2022-08-23T23:10:57.401Z,28.14
2022-08-23T23:13:48.099Z,28.12
2022-08-23T23:16:39.955Z,28.10
2022-08-23T23:19:47.181Z,28.07
2022-08-23T23:22:37.578Z,28.06
2022-08-23T23:25:28.202Z,28.05
2022-08-23T23:28:23.030Z,28.05
2022-08-23T23:31:13.836Z,28.04
2022-08-23T23:34:06.175Z,28.00
2022-08-23T23:36:58.668Z,27.97
2022-08-23T23:39:50.173Z,27.94
2022-08-23T23:42:40.903Z,27.90
2022-08-23T23:45:32.012Z,27.86
2022-08-23T23:48:23.222Z,27.83
2022-08-23T23:51:16.310Z,27.80
2022-08-23T23:54:07.474Z,27.78
2022-08-23T23:56:58.258Z,27.77
2022-08-23T23:59:48.919Z,27.74
